Time;durP1;ratioP1;P1;durP2;ratioP2;P2;SDS_P1;SDS_P2;PMS_P1;PMS_P2;Temp;Humidity;BMP_temperature;BMP_pressure;BME280_temperature;BME280_humidity;BME280_pressure;Samples;Min_cycle;Max_cycle;Signal;HPM_P1;HPM_P2
2021/10/04 00:01:49;;;;;;;;;;;;;;;8.17;86.43;100626.00;5014133;28;1945;-60
2021/10/04 00:04:16;;;;;;;;;;;;;;;8.10;86.14;100620.38;5014179;28;878;-60
2021/10/04 00:06:43;;;;;;;;;;;;;;;8.05;86.19;100615.97;5014076;28;854;-60
2021/10/04 00:09:10;;;;;;;;;;;;;;;7.98;86.70;100619.41;5014052;28;874;-60
2021/10/04 00:11:36;;;;;;;;;;;;;;;7.90;86.20;100611.38;5014046;28;854;-60
2021/10/04 00:14:03;;;;;;;;;;;;;;;7.84;86.16;100612.81;5014256;28;866;-60
2021/10/04 00:16:30;;;;;;;;;;;;;;;7.77;86.27;100611.53;5013924;28;1055;-60
2021/10/04 00:18:57;;;;;;;;;;;;;;;7.76;87.13;100609.13;5013839;28;857;-60
2021/10/04 00:21:22;;;;;;;;;;;;;;;7.77;86.93;100614.28;5013616;28;1947;-60
2021/10/04 00:23:49;;;;;;;;;;;;;;;7.76;86.20;100609.13;5013747;28;862;-60
2021/10/04 00:26:17;;;;;;;;;;;;;;;7.67;86.99;100612.09;5013996;28;847;-60
2021/10/04 00:28:44;;;;;;;;;;;;;;;7.59;86.65;100609.59;5013496;28;811;-60
2021/10/04 00:31:11;;;;;;;;;;;;;;;7.51;87.28;100611.38;5013700;28;851;-60
2021/10/04 00:33:38;;;;;;;;;;;;;;;7.47;87.09;100616.81;5012649;28;862;-60
2021/10/04 00:36:05;;;;;;;;;;;;;;;7.49;86.93;100614.50;5013432;28;858;-60
2021/10/04 00:38:32;;;;;;;;;;;;;;;7.55;87.19;100609.50;5013597;28;804;-60
2021/10/04 00:40:59;;;;;;;;;;;;;;;7.60;87.33;100606.47;5013364;28;1975;-60
2021/10/04 00:43:26;;;;;;;;;;;;;;;7.63;87.21;100607.69;5013687;28;834;-60
2021/10/04 00:45:53;;;;;;;;;;;;;;;7.61;87.14;100602.56;5013336;28;855;-60
2021/10/04 00:48:20;;;;;;;;;;;;;;;7.65;87.66;100599.88;5013387;28;862;-60
2021/10/04 00:50:49;;;;;;;;;;;;;;;7.81;87.90;100597.84;4995668;28;1304;-60
2021/10/04 00:53:16;;;;;;;;;;;;;;;8.07;88.49;100593.59;5013251;28;885;-60
2021/10/04 00:55:43;;;;;;;;;;;;;;;8.21;88.06;100585.56;5013411;28;849;-60
2021/10/04 00:58:11;;;;;;;;;;;;;;;8.32;88.38;100589.31;5013105;28;855;-60
2021/10/04 01:00:38;;;;;;;;;;;;;;;8.51;88.73;100579.41;4995369;28;1894;-60
2021/10/04 01:03:04;;;;;;;;;;;;;;;8.64;88.18;100588.25;5013057;28;819;-60
2021/10/04 01:05:31;;;;;;;;;;;;;;;8.68;88.05;100584.38;5012962;28;827;-60
2021/10/04 01:07:58;;;;;;;;;;;;;;;8.61;87.77;100580.75;5012874;28;851;-60
2021/10/04 01:10:26;;;;;;;;;;;;;;;8.54;87.82;100582.22;5012877;28;819;-60
2021/10/04 01:12:54;;;;;;;;;;;;;;;8.51;87.39;100584.91;5012759;28;835;-60
2021/10/04 01:15:21;;;;;;;;;;;;;;;8.49;87.36;100593.56;5012804;28;965;-60
2021/10/04 01:17:48;;;;;;;;;;;;;;;8.54;87.79;100592.44;5013143;28;977;-60
2021/10/04 01:20:23;;;;;;;;;;;;;;;8.58;87.45;100588.59;5012690;28;957;-60
2021/10/04 01:22:50;;;;;;;;;;;;;;;8.53;87.20;100591.63;5012485;28;1273;-60
2021/10/04 01:25:18;;;;;;;;;;;;;;;8.51;87.10;100590.41;5012651;28;843;-60
2021/10/04 01:27:46;;;;;;;;;;;;;;;8.44;86.96;100599.34;5012436;28;819;-60
2021/10/04 01:30:15;;;;;;;;;;;;;;;8.34;86.78;100594.44;5012495;28;827;-60
2021/10/04 01:32:43;;;;;;;;;;;;;;;8.22;86.88;100591.88;5012795;28;834;-60
2021/10/04 01:35:10;;;;;;;;;;;;;;;8.06;86.68;100595.53;5013229;28;804;-60
2021/10/04 01:37:37;;;;;;;;;;;;;;;7.99;87.08;100600.91;5012744;28;807;-60
2021/10/04 01:40:05;;;;;;;;;;;;;;;7.96;87.09;100596.94;5012581;28;898;-60
2021/10/04 01:42:32;;;;;;;;;;;;;;;7.94;86.93;100598.47;5012450;28;1965;-60
2021/10/04 01:44:59;;;;;;;;;;;;;;;7.89;86.81;100594.03;5012274;28;839;-60
2021/10/04 01:47:25;;;;;;;;;;;;;;;7.89;87.05;100593.25;5012640;28;849;-60
2021/10/04 01:49:52;;;;;;;;;;;;;;;7.88;87.24;100597.97;5012545;28;810;-60
2021/10/04 01:52:19;;;;;;;;;;;;;;;7.87;87.27;100601.91;5012451;28;827;-60
2021/10/04 01:54:45;;;;;;;;;;;;;;;7.84;86.84;100593.56;5012497;28;906;-60
2021/10/04 01:57:12;;;;;;;;;;;;;;;7.79;87.58;100597.41;5012051;28;870;-60
2021/10/04 01:59:39;;;;;;;;;;;;;;;7.69;87.60;100592.50;5012900;28;814;-60
2021/10/04 02:02:06;;;;;;;;;;;;;;;7.61;87.45;100599.00;5012017;28;1882;-60
2021/10/04 02:04:33;;;;;;;;;;;;;;;7.52;87.05;100605.53;5012753;28;811;-60
2021/10/04 02:07:00;;;;;;;;;;;;;;;7.50;88.07;100612.56;5012644;28;763;-60
2021/10/04 02:09:27;;;;;;;;;;;;;;;7.50;87.85;100610.59;5012389;28;740;-60
2021/10/04 02:11:53;;;;;;;;;;;;;;;7.50;87.12;100610.59;4994378;28;1391;-60
2021/10/04 02:14:21;;;;;;;;;;;;;;;7.45;87.83;100613.63;5012378;28;906;-60
2021/10/04 02:16:48;;;;;;;;;;;;;;;7.43;87.46;100618.69;5012208;28;1026;-60
2021/10/04 02:19:15;;;;;;;;;;;;;;;7.36;87.54;100613.03;4994308;28;1206;-60
2021/10/04 02:21:42;;;;;;;;;;;;;;;7.29;87.19;100612.91;5011848;28;1943;-60
2021/10/04 02:24:09;;;;;;;;;;;;;;;7.29;87.88;100607.41;5012090;28;819;-60
2021/10/04 02:26:36;;;;;;;;;;;;;;;7.27;86.85;100612.47;5012568;28;755;-60
2021/10/04 02:29:03;;;;;;;;;;;;;;;7.15;87.65;100602.41;5012391;28;827;-60
2021/10/04 02:31:30;;;;;;;;;;;;;;;7.04;86.91;100599.41;5011903;28;1214;-60
2021/10/04 02:33:57;;;;;;;;;;;;;;;6.97;87.67;100606.69;5012046;28;882;-60
2021/10/04 02:36:25;;;;;;;;;;;;;;;6.97;87.85;100603.94;5011804;28;882;-60
2021/10/04 02:38:52;;;;;;;;;;;;;;;6.92;87.18;100608.56;5012102;28;839;-61
2021/10/04 02:41:19;;;;;;;;;;;;;;;6.84;87.70;100615.03;5012022;28;1966;-60
2021/10/04 02:43:46;;;;;;;;;;;;;;;6.78;87.84;100605.47;5011918;28;803;-60
2021/10/04 02:46:12;;;;;;;;;;;;;;;6.77;88.26;100605.84;5012074;28;752;-60
2021/10/04 02:48:39;;;;;;;;;;;;;;;6.77;88.53;100617.63;5011864;28;842;-60
2021/10/04 02:51:06;;;;;;;;;;;;;;;6.81;88.12;100618.53;5011604;28;816;-60
2021/10/04 02:53:33;;;;;;;;;;;;;;;6.89;89.14;100613.97;5012135;28;843;-60
2021/10/04 02:56:00;;;;;;;;;;;;;;;7.01;88.44;100616.63;5012235;28;795;-60
2021/10/04 02:58:27;;;;;;;;;;;;;;;7.01;87.92;100616.63;5014453;28;862;-60
2021/10/04 03:00:53;;;;;;;;;;;;;;;6.92;88.27;100627.81;5015471;28;1886;-60
2021/10/04 03:03:20;;;;;;;;;;;;;;;6.84;88.14;100625.25;5015496;28;878;-60
2021/10/04 03:05:48;;;;;;;;;;;;;;;6.81;88.36;100626.75;4997665;28;1177;-60
2021/10/04 03:08:15;;;;;;;;;;;;;;;6.91;88.80;100628.16;5012484;28;1364;-60
2021/10/04 03:10:42;;;;;;;;;;;;;;;7.05;88.56;100630.44;4997689;28;847;-60
2021/10/04 03:13:09;;;;;;;;;;;;;;;7.11;89.29;100624.31;5015321;28;890;-60
2021/10/04 03:15:36;;;;;;;;;;;;;;;7.09;88.28;100629.38;5015730;28;834;-60
2021/10/04 03:18:03;;;;;;;;;;;;;;;6.97;88.40;100626.72;5015495;28;936;-60
2021/10/04 03:20:30;;;;;;;;;;;;;;;6.94;88.78;100627.47;5015319;28;1862;-61
2021/10/04 03:22:57;;;;;;;;;;;;;;;6.92;88.83;100629.75;4997366;28;1284;-60
2021/10/04 03:25:25;;;;;;;;;;;;;;;6.88;88.37;100624.19;4997329;28;1212;-60
2021/10/04 03:27:51;;;;;;;;;;;;;;;6.82;89.21;100628.34;5015139;28;787;-60
2021/10/04 03:30:18;;;;;;;;;;;;;;;6.89;89.91;100622.22;5015241;28;815;-60
2021/10/04 03:32:46;;;;;;;;;;;;;;;6.93;88.64;100612.09;5015416;28;822;-60
2021/10/04 03:35:13;;;;;;;;;;;;;;;6.99;89.03;100616.16;5014965;28;839;-60
2021/10/04 03:37:41;;;;;;;;;;;;;;;7.04;88.69;100617.84;5015198;28;867;-60
2021/10/04 03:40:09;;;;;;;;;;;;;;;7.04;89.60;100615.91;5014872;28;890;-60
2021/10/04 03:42:35;;;;;;;;;;;;;;;6.95;88.38;100620.78;4996839;28;1985;-60
2021/10/04 03:45:02;;;;;;;;;;;;;;;6.86;88.57;100615.50;4997020;28;1367;-60
2021/10/04 03:47:29;;;;;;;;;;;;;;;6.71;88.81;100622.59;5014607;28;901;-60
2021/10/04 03:49:56;;;;;;;;;;;;;;;6.66;89.00;100622.88;5014576;28;811;-60
2021/10/04 03:52:22;;;;;;;;;;;;;;;6.72;89.58;100628.88;5014607;28;858;-60
2021/10/04 03:54:49;;;;;;;;;;;;;;;6.78;89.85;100613.72;5014441;28;838;-60
2021/10/04 03:57:16;;;;;;;;;;;;;;;6.81;88.88;100617.72;5014600;28;841;-60
2021/10/04 03:59:43;;;;;;;;;;;;;;;6.84;88.65;100622.50;5014494;28;823;-60
2021/10/04 04:02:12;;;;;;;;;;;;;;;6.90;89.08;100619.13;5014637;28;1894;-60
2021/10/04 04:04:39;;;;;;;;;;;;;;;7.02;89.88;100620.16;5014146;28;858;-61
2021/10/04 04:07:06;;;;;;;;;;;;;;;7.11;90.06;100618.81;5014139;28;835;-60
2021/10/04 04:09:33;;;;;;;;;;;;;;;7.23;90.17;100623.38;5014151;28;870;-60
2021/10/04 04:12:00;;;;;;;;;;;;;;;7.33;90.87;100624.78;4996399;28;1359;-60
2021/10/04 04:14:27;;;;;;;;;;;;;;;7.38;90.21;100626.44;5013990;28;851;-60
2021/10/04 04:16:54;;;;;;;;;;;;;;;7.41;89.73;100623.78;5014150;28;916;-60
2021/10/04 04:19:21;;;;;;;;;;;;;;;7.36;90.27;100624.03;5013957;28;878;-60
2021/10/04 04:21:47;;;;;;;;;;;;;;;7.33;89.26;100628.31;5013665;28;1947;-60
2021/10/04 04:24:17;;;;;;;;;;;;;;;7.30;89.54;100628.25;5013838;28;808;-60
2021/10/04 04:26:44;;;;;;;;;;;;;;;7.26;89.72;100622.66;5014026;28;824;-60
2021/10/04 04:29:11;;;;;;;;;;;;;;;7.30;89.99;100633.75;5013632;28;834;-60
2021/10/04 04:31:38;;;;;;;;;;;;;;;7.32;90.49;100628.69;5013667;28;867;-60
2021/10/04 04:34:05;;;;;;;;;;;;;;;7.42;90.37;100639.09;5013580;28;811;-60
2021/10/04 04:36:32;;;;;;;;;;;;;;;7.49;91.01;100628.25;5013691;28;819;-60
2021/10/04 04:38:59;;;;;;;;;;;;;;;7.58;90.80;100639.06;5013462;28;831;-60
2021/10/04 04:41:26;;;;;;;;;;;;;;;7.60;90.90;100638.69;5013369;28;1910;-60
2021/10/04 04:43:53;;;;;;;;;;;;;;;7.59;90.38;100635.13;5013711;28;811;-60
2021/10/04 04:46:20;;;;;;;;;;;;;;;7.65;90.94;100639.19;5013308;28;842;-60
2021/10/04 04:48:46;;;;;;;;;;;;;;;7.71;90.39;100643.25;5013487;28;866;-60
2021/10/04 04:51:13;;;;;;;;;;;;;;;7.81;90.88;100639.13;5013284;28;847;-60
2021/10/04 04:53:40;;;;;;;;;;;;;;;7.91;90.59;100646.78;5013076;28;870;-60
2021/10/04 04:56:07;;;;;;;;;;;;;;;8.02;90.38;100640.69;5013188;28;827;-60
2021/10/04 04:58:36;;;;;;;;;;;;;;;8.13;90.62;100627.94;5013206;28;854;-60
2021/10/04 05:01:02;;;;;;;;;;;;;;;8.24;90.83;100628.91;5013080;28;1882;-60
2021/10/04 05:03:29;;;;;;;;;;;;;;;8.38;90.82;100637.44;5013050;28;974;-60
2021/10/04 05:05:56;;;;;;;;;;;;;;;8.51;90.81;100640.81;5013065;28;847;-60
2021/10/04 05:08:24;;;;;;;;;;;;;;;8.62;90.70;100637.44;5012908;28;946;-60
2021/10/04 05:18:34;;;;;;;;;;;;;;;9.25;89.77;100649.81;5009667;28;1327;-57
2021/10/04 05:21:00;;;;;;;;;;;;;;;9.44;89.77;100644.16;5012183;28;1906;-57
2021/10/04 05:23:29;;;;;;;;;;;;;;;9.63;89.11;100653.47;5012740;28;810;-57
2021/10/04 05:25:57;;;;;;;;;;;;;;;9.85;89.28;100654.53;5012975;28;913;-57
2021/10/04 05:28:24;;;;;;;;;;;;;;;10.08;88.52;100657.16;5012984;28;925;-57
2021/10/04 05:30:50;;;;;;;;;;;;;;;10.27;87.91;100659.72;5013329;28;806;-57
2021/10/04 05:33:17;;;;;;;;;;;;;;;10.39;87.42;100661.41;5012581;28;869;-57
2021/10/04 05:35:44;;;;;;;;;;;;;;;10.49;87.20;100663.50;5013304;28;807;-57
2021/10/04 05:38:11;;;;;;;;;;;;;;;10.61;86.91;100660.44;4995153;28;1501;-57
2021/10/04 05:40:38;;;;;;;;;;;;;;;10.71;86.37;100663.69;5013119;28;1934;-57
2021/10/04 05:43:05;;;;;;;;;;;;;;;10.79;86.31;100663.34;5012499;28;870;-57
2021/10/04 05:45:32;;;;;;;;;;;;;;;10.85;86.17;100660.25;5012834;28;779;-57
2021/10/04 05:47:58;;;;;;;;;;;;;;;10.95;86.05;100663.09;5012075;28;898;-57
2021/10/04 05:50:25;;;;;;;;;;;;;;;11.20;86.17;100666.03;5012255;28;830;-57
2021/10/04 05:52:51;;;;;;;;;;;;;;;11.62;84.87;100672.19;5012152;28;969;-57
2021/10/04 05:55:19;;;;;;;;;;;;;;;12.03;83.47;100667.25;5012094;28;842;-57
2021/10/04 05:57:46;;;;;;;;;;;;;;;12.32;81.72;100675.63;5012181;28;818;-57
2021/10/04 06:00:14;;;;;;;;;;;;;;;12.34;81.41;100673.25;5012024;28;831;-57
2021/10/04 06:02:41;;;;;;;;;;;;;;;12.42;81.68;100683.16;5012060;28;1949;-57
2021/10/04 06:05:08;;;;;;;;;;;;;;;12.45;81.69;100676.81;5012503;28;799;-57
2021/10/04 06:07:35;;;;;;;;;;;;;;;12.63;81.00;100687.94;5012352;28;826;-57
2021/10/04 06:10:02;;;;;;;;;;;;;;;12.97;79.56;100681.19;5012228;28;780;-57
2021/10/04 06:12:29;;;;;;;;;;;;;;;13.12;78.67;100682.78;5012634;28;748;-57
2021/10/04 06:15:00;;;;;;;;;;;;;;;13.21;78.36;100688.72;5012406;28;788;-58
2021/10/04 06:17:27;;;;;;;;;;;;;;;13.69;76.87;100690.19;5011793;28;1206;-57
2021/10/04 06:19:55;;;;;;;;;;;;;;;14.35;74.97;100689.47;5011788;28;868;-58
2021/10/04 06:22:22;;;;;;;;;;;;;;;15.26;72.08;100693.16;5011789;28;1914;-58
2021/10/04 06:24:50;;;;;;;;;;;;;;;16.02;69.50;100688.31;5011669;28;871;-58
2021/10/04 06:27:17;;;;;;;;;;;;;;;16.60;66.58;100687.50;5011919;28;873;-57
2021/10/04 06:29:44;;;;;;;;;;;;;;;16.82;64.74;100688.78;5011726;28;787;-57
2021/10/04 06:32:11;;;;;;;;;;;;;;;17.03;63.48;100698.03;5012399;28;903;-58
2021/10/04 06:34:39;;;;;;;;;;;;;;;17.35;62.90;100692.63;4982111;28;791;-58
2021/10/04 06:37:06;;;;;;;;;;;;;;;18.09;60.14;100693.59;5015884;28;967;-58
2021/10/04 06:39:32;;;;;;;;;;;;;;;18.93;57.93;100692.06;5015645;28;893;-58
2021/10/04 06:41:59;;;;;;;;;;;;;;;19.30;56.97;100683.50;5015666;28;1947;-57
2021/10/04 06:44:25;;;;;;;;;;;;;;;19.90;55.84;100692.25;5015668;28;811;-58
2021/10/04 06:46:52;;;;;;;;;;;;;;;20.27;54.70;100686.34;4998168;28;894;-57
2021/10/04 06:49:19;;;;;;;;;;;;;;;20.57;52.65;100691.44;5015511;28;930;-57
2021/10/04 06:51:45;;;;;;;;;;;;;;;20.82;52.42;100686.25;5015573;28;802;-58
2021/10/04 06:54:12;;;;;;;;;;;;;;;21.20;51.19;100695.38;5015376;28;935;-58
2021/10/04 06:56:39;;;;;;;;;;;;;;;21.58;50.06;100688.06;5015432;28;823;-57
2021/10/04 06:59:06;;;;;;;;;;;;;;;21.78;49.27;100682.88;5015682;28;815;-58
2021/10/04 07:01:35;;;;;;;;;;;;;;;21.83;49.15;100687.16;5015143;28;1889;-58
2021/10/04 07:04:02;;;;;;;;;;;;;;;21.87;49.34;100681.38;5015237;28;967;-58
2021/10/04 07:06:29;;;;;;;;;;;;;;;21.88;48.04;100685.75;5015238;28;818;-58
2021/10/04 07:08:56;;;;;;;;;;;;;;;21.29;47.60;100674.97;5015217;28;874;-58
2021/10/04 07:11:24;;;;;;;;;;;;;;;21.19;47.47;100676.94;5015412;28;814;-58
2021/10/04 07:13:50;;;;;;;;;;;;;;;21.07;48.01;100679.78;5015430;28;861;-58
2021/10/04 07:16:17;;;;;;;;;;;;;;;21.52;46.79;100678.63;5015025;28;909;-58
2021/10/04 07:18:45;;;;;;;;;;;;;;;22.18;45.05;100670.91;5014893;28;1222;-58
2021/10/04 07:21:13;;;;;;;;;;;;;;;22.13;44.92;100676.38;5014963;28;1918;-58
2021/10/04 07:23:39;;;;;;;;;;;;;;;22.24;43.00;100665.50;5014784;28;894;-58
2021/10/04 07:26:06;;;;;;;;;;;;;;;21.99;43.22;100678.47;5014877;28;840;-58
2021/10/04 07:28:33;;;;;;;;;;;;;;;21.63;43.85;100678.25;5014745;28;950;-58
2021/10/04 07:31:00;;;;;;;;;;;;;;;21.79;44.11;100686.50;5014873;28;858;-58
2021/10/04 07:33:27;;;;;;;;;;;;;;;21.62;43.72;100680.28;5014659;28;897;-58
2021/10/04 07:35:55;;;;;;;;;;;;;;;21.78;43.70;100673.66;5014895;28;790;-57
2021/10/04 07:38:23;;;;;;;;;;;;;;;20.98;43.96;100683.31;5014643;28;1057;-57
2021/10/04 07:40:50;;;;;;;;;;;;;;;21.41;42.26;100673.38;5014814;28;1955;-58
2021/10/04 07:43:17;;;;;;;;;;;;;;;21.81;39.30;100676.34;5014135;28;869;-58
2021/10/04 07:45:44;;;;;;;;;;;;;;;21.90;38.47;100677.66;5014533;28;831;-58
2021/10/04 07:48:12;;;;;;;;;;;;;;;22.28;38.66;100671.00;5014446;28;870;-58
2021/10/04 07:50:39;;;;;;;;;;;;;;;22.33;38.31;100667.56;5014317;28;914;-58
2021/10/04 07:53:06;;;;;;;;;;;;;;;22.46;38.73;100665.41;5014333;28;917;-58
2021/10/04 07:55:32;;;;;;;;;;;;;;;22.70;38.50;100667.66;5014367;28;858;-58
2021/10/04 07:58:00;;;;;;;;;;;;;;;22.83;38.92;100665.53;5014327;28;1028;-58
2021/10/04 08:00:27;;;;;;;;;;;;;;;23.08;38.83;100660.88;5014280;28;862;-58
2021/10/04 08:02:54;;;;;;;;;;;;;;;22.98;38.42;100668.50;5014183;28;1879;-58
2021/10/04 08:05:21;;;;;;;;;;;;;;;23.16;37.18;100671.38;5014173;28;806;-57
2021/10/04 08:07:47;;;;;;;;;;;;;;;23.23;37.19;100664.63;5014158;28;827;-57
2021/10/04 08:10:14;;;;;;;;;;;;;;;23.06;37.14;100666.19;5014067;28;887;-57
2021/10/04 08:12:41;;;;;;;;;;;;;;;22.16;39.25;100670.56;5014056;28;889;-58
2021/10/04 08:15:08;;;;;;;;;;;;;;;21.26;41.56;100673.09;5013851;28;882;-57
2021/10/04 08:17:35;;;;;;;;;;;;;;;21.51;40.45;100677.84;5013850;28;1199;-57
2021/10/04 08:20:04;;;;;;;;;;;;;;;22.01;39.45;100678.78;5013848;28;982;-57
2021/10/04 08:22:32;;;;;;;;;;;;;;;21.01;41.12;100673.94;5014032;28;1910;-57
2021/10/04 08:24:59;;;;;;;;;;;;;;;19.92;43.25;100680.59;5013892;28;804;-57
2021/10/04 08:27:24;;;;;;;;;;;;;;;19.10;44.89;100681.63;5013744;28;815;-57
2021/10/04 08:29:51;;;;;;;;;;;;;;;18.56;45.87;100679.31;5013671;28;811;-57
2021/10/04 08:32:18;;;;;;;;;;;;;;;18.08;46.90;100676.03;5013694;28;807;-57
2021/10/04 08:34:45;;;;;;;;;;;;;;;18.08;47.18;100676.03;5013583;28;899;-57
2021/10/04 08:37:11;;;;;;;;;;;;;;;18.65;45.52;100668.31;5013578;28;902;-57
2021/10/04 08:39:38;;;;;;;;;;;;;;;18.62;45.63;100663.59;5013444;28;847;-57
2021/10/04 08:42:05;;;;;;;;;;;;;;;18.32;46.06;100662.69;4995829;28;1979;-57
2021/10/04 08:44:33;;;;;;;;;;;;;;;18.05;46.69;100662.09;5013212;28;921;-57
2021/10/04 08:46:59;;;;;;;;;;;;;;;17.80;47.15;100665.44;5013645;28;902;-57
2021/10/04 08:49:28;;;;;;;;;;;;;;;18.04;47.37;100658.53;5013315;28;874;-57
2021/10/04 08:51:55;;;;;;;;;;;;;;;19.66;44.53;100654.47;5013250;28;875;-57
2021/10/04 08:54:24;;;;;;;;;;;;;;;20.18;42.26;100661.75;5012735;28;859;-58
2021/10/04 08:56:53;;;;;;;;;;;;;;;19.84;42.49;100653.97;5012764;28;894;-58
2021/10/04 08:59:19;;;;;;;;;;;;;;;19.54;43.32;100651.22;5013016;28;938;-57
2021/10/04 09:01:47;;;;;;;;;;;;;;;19.29;43.79;100649.09;5013027;28;1886;-57
2021/10/04 09:04:18;;;;;;;;;;;;;;;19.08;43.65;100658.09;5013025;28;898;-57
2021/10/04 09:06:45;;;;;;;;;;;;;;;19.18;43.13;100648.56;5013041;28;882;-58
2021/10/04 09:09:13;;;;;;;;;;;;;;;19.55;42.77;100649.97;5013017;28;862;-58
2021/10/04 09:11:48;;;;;;;;;;;;;;;20.39;40.53;100647.06;5013093;28;858;-58
2021/10/04 09:14:16;;;;;;;;;;;;;;;20.39;40.33;100649.06;5012735;28;923;-58
2021/10/04 09:16:49;;;;;;;;;;;;;;;20.21;40.71;100644.03;4995378;28;949;-58
2021/10/04 09:19:26;;;;;;;;;;;;;;;20.70;40.36;100648.53;5012682;28;1385;-58
2021/10/04 09:22:03;;;;;;;;;;;;;;;21.24;39.17;100650.25;5012878;28;1910;-58
2021/10/04 09:24:30;;;;;;;;;;;;;;;21.14;39.05;100640.19;5012926;28;903;-58
2021/10/04 09:26:57;;;;;;;;;;;;;;;21.16;39.23;100634.88;5012645;28;866;-57
2021/10/04 09:29:24;;;;;;;;;;;;;;;21.05;38.77;100624.03;4995166;28;819;-58
2021/10/04 09:31:52;;;;;;;;;;;;;;;20.76;38.74;100627.03;5012552;28;949;-58
2021/10/04 09:34:24;;;;;;;;;;;;;;;20.88;39.11;100634.66;5012483;28;830;-58
2021/10/04 09:36:51;;;;;;;;;;;;;;;21.58;38.33;100626.97;5012471;28;958;-58
2021/10/04 09:39:21;;;;;;;;;;;;;;;22.12;36.56;100616.44;5012344;28;895;-58
2021/10/04 09:42:03;;;;;;;;;;;;;;;22.81;35.63;100612.44;5012763;28;1890;-58
2021/10/04 09:44:48;;;;;;;;;;;;;;;24.04;33.67;100617.00;5012301;28;1578;-58
2021/10/04 09:47:19;;;;;;;;;;;;;;;24.23;33.10;100614.13;5012186;28;1085;-58
2021/10/04 09:49:47;;;;;;;;;;;;;;;24.57;32.83;100621.34;5012317;28;822;-58
2021/10/04 09:52:13;;;;;;;;;;;;;;;24.48;32.64;100617.75;5012272;28;906;-58
2021/10/04 09:54:44;;;;;;;;;;;;;;;23.19;34.06;100616.06;5012210;28;803;-58
2021/10/04 09:57:20;;;;;;;;;;;;;;;22.66;35.62;100614.31;5012218;28;886;-58
2021/10/04 09:59:47;;;;;;;;;;;;;;;22.15;36.36;100617.56;5012140;28;868;-58
2021/10/04 10:02:16;;;;;;;;;;;;;;;21.60;37.61;100615.25;5011977;28;1914;-58
2021/10/04 10:04:45;;;;;;;;;;;;;;;21.34;38.23;100614.59;5012078;28;870;-57
2021/10/04 10:07:12;;;;;;;;;;;;;;;21.00;38.67;100613.38;5012111;28;910;-57
2021/10/04 10:09:39;;;;;;;;;;;;;;;20.88;38.92;100603.75;5011979;28;868;-57
2021/10/04 10:12:06;;;;;;;;;;;;;;;20.74;39.46;100610.66;4994404;28;870;-57
2021/10/04 10:14:45;;;;;;;;;;;;;;;20.73;39.22;100597.81;5011855;28;875;-57
2021/10/04 10:17:15;;;;;;;;;;;;;;;20.82;39.26;100599.16;5011727;28;1355;-57
2021/10/04 10:19:44;;;;;;;;;;;;;;;21.84;36.56;100589.44;5011790;28;898;-58
2021/10/04 10:22:13;;;;;;;;;;;;;;;22.31;35.69;100582.75;5011729;28;1906;-57
2021/10/04 10:24:39;;;;;;;;;;;;;;;22.00;35.94;100589.22;5011939;28;815;-57
2021/10/04 10:27:06;;;;;;;;;;;;;;;21.65;36.62;100586.53;5011788;28;929;-57
2021/10/04 10:29:35;;;;;;;;;;;;;;;21.86;36.80;100579.28;5011782;28;799;-57
2021/10/04 10:32:04;;;;;;;;;;;;;;;21.84;36.67;100587.41;5012068;28;850;-57
2021/10/04 10:34:30;;;;;;;;;;;;;;;21.64;36.86;100582.16;5011712;28;854;-57
2021/10/04 10:37:07;;;;;;;;;;;;;;;21.43;36.76;100574.53;5011638;28;851;-57
2021/10/04 10:39:53;;;;;;;;;;;;;;;21.41;37.08;100572.13;5011672;28;859;-57
2021/10/04 10:42:22;;;;;;;;;;;;;;;21.65;37.28;100569.63;5011517;28;1882;-57
2021/10/04 10:44:56;;;;;;;;;;;;;;;21.90;36.77;100568.66;5011678;28;946;-57
2021/10/04 10:47:37;;;;;;;;;;;;;;;22.22;36.26;100569.41;5011529;28;910;-57
2021/10/04 10:50:14;;;;;;;;;;;;;;;22.08;36.11;100570.75;5011636;28;1109;-57
2021/10/04 10:52:56;;;;;;;;;;;;;;;21.91;36.65;100566.63;5011522;28;815;-57
2021/10/04 10:55:24;;;;;;;;;;;;;;;22.03;36.39;100568.56;5011629;28;786;-57
2021/10/04 10:57:51;;;;;;;;;;;;;;;21.89;36.73;100569.94;5011515;28;799;-57
2021/10/04 11:00:18;;;;;;;;;;;;;;;21.59;37.72;100566.66;5011529;28;1022;-57
2021/10/04 11:02:55;;;;;;;;;;;;;;;21.40;38.70;100573.38;5011649;28;1882;-57
2021/10/04 11:05:43;;;;;;;;;;;;;;;21.20;39.43;100568.09;5011656;28;860;-57
2021/10/04 11:08:15;;;;;;;;;;;;;;;20.97;40.93;100563.69;5011444;28;807;-57
2021/10/04 11:10:48;;;;;;;;;;;;;;;20.88;40.91;100560.81;5011592;28;898;-57
2021/10/04 11:13:21;;;;;;;;;;;;;;;21.31;40.15;100556.44;5011420;28;858;-57
2021/10/04 11:15:48;;;;;;;;;;;;;;;22.25;38.91;100542.38;5011276;28;870;-58
2021/10/04 11:18:15;;;;;;;;;;;;;;;23.05;37.21;100541.38;5011934;28;1367;-58
2021/10/04 11:20:42;;;;;;;;;;;;;;;23.92;35.33;100538.97;5014901;28;1918;-58
2021/10/04 11:23:11;;;;;;;;;;;;;;;24.77;34.42;100532.31;5015005;28;802;-58
2021/10/04 11:25:44;;;;;;;;;;;;;;;24.87;33.39;100533.81;5014988;28;873;-58
2021/10/04 11:28:12;;;;;;;;;;;;;;;23.78;34.74;100534.78;5014970;28;1021;-58
2021/10/04 11:31:00;;;;;;;;;;;;;;;23.06;35.81;100528.06;5015001;28;1067;-58
2021/10/04 11:33:27;;;;;;;;;;;;;;;22.63;36.75;100537.13;5015375;28;850;-58
2021/10/04 11:36:21;;;;;;;;;;;;;;;22.61;37.39;100527.56;4997515;28;803;-58
2021/10/04 11:38:52;;;;;;;;;;;;;;;22.49;37.43;100522.84;5012234;28;1888;-58
2021/10/04 11:41:37;;;;;;;;;;;;;;;21.81;39.07;100513.16;5014535;28;1951;-57
2021/10/04 11:44:05;;;;;;;;;;;;;;;21.45;39.96;100525.00;5014639;28;827;-57
2021/10/04 11:46:34;;;;;;;;;;;;;;;21.91;39.38;100521.59;5014497;28;867;-57
2021/10/04 11:49:05;;;;;;;;;;;;;;;22.51;38.32;100515.53;5014491;28;850;-57
2021/10/04 11:51:34;;;;;;;;;;;;;;;23.70;36.38;100519.41;5014532;28;823;-58
2021/10/04 11:54:02;;;;;;;;;;;;;;;24.88;34.94;100514.78;5014259;28;954;-58
2021/10/04 11:56:29;;;;;;;;;;;;;;;25.90;32.76;100506.00;5014402;28;1043;-58
2021/10/04 11:58:58;;;;;;;;;;;;;;;26.68;31.90;100503.44;5014316;28;830;-58
2021/10/04 12:01:32;;;;;;;;;;;;;;;26.84;30.09;100513.41;5014268;28;1894;-58
2021/10/04 12:04:02;;;;;;;;;;;;;;;26.86;29.74;100499.50;4996655;28;1630;-58
2021/10/04 12:06:30;;;;;;;;;;;;;;;26.82;29.59;100504.63;4996565;28;887;-58
2021/10/04 12:08:58;;;;;;;;;;;;;;;27.02;29.28;100496.06;5014356;28;879;-58
2021/10/04 12:11:26;;;;;;;;;;;;;;;27.41;28.61;100500.56;5014069;28;858;-58
2021/10/04 12:13:53;;;;;;;;;;;;;;;27.83;28.05;100499.09;5013928;28;898;-58
2021/10/04 12:16:21;;;;;;;;;;;;;;;28.03;27.75;100486.81;5013943;28;1397;-58
2021/10/04 12:18:55;;;;;;;;;;;;;;;28.00;27.84;100496.38;5013665;28;1227;-58
2021/10/04 12:21:27;;;;;;;;;;;;;;;26.86;28.69;100485.34;5013771;28;1943;-57
2021/10/04 12:24:12;;;;;;;;;;;;;;;25.72;30.53;100498.53;5013725;28;966;-57
2021/10/04 12:27:07;;;;;;;;;;;;;;;24.95;31.45;100497.47;5013932;28;950;-58
2021/10/04 12:29:39;;;;;;;;;;;;;;;24.02;32.70;100495.28;5010777;28;2074;-57
2021/10/04 12:32:24;;;;;;;;;;;;;;;24.24;32.12;100494.25;5013918;28;886;-57
2021/10/04 12:34:56;;;;;;;;;;;;;;;24.30;32.15;100492.28;5013592;28;890;-57
2021/10/04 12:37:25;;;;;;;;;;;;;;;24.21;32.15;100498.00;5013482;28;856;-57
2021/10/04 12:39:52;;;;;;;;;;;;;;;23.34;34.03;100497.75;5013348;28;1016;-57
2021/10/04 12:42:20;;;;;;;;;;;;;;;22.32;37.10;100500.63;5013369;28;1898;-57
2021/10/04 12:44:47;;;;;;;;;;;;;;;21.80;38.62;100497.50;5013365;28;902;-57
2021/10/04 12:47:14;;;;;;;;;;;;;;;22.54;38.44;100494.88;5013400;28;843;-57
2021/10/04 12:50:01;;;;;;;;;;;;;;;23.44;36.97;100490.84;5013347;28;889;-57
2021/10/04 12:52:31;;;;;;;;;;;;;;;24.43;35.78;100494.88;5013356;28;2063;-57
2021/10/04 12:54:58;;;;;;;;;;;;;;;25.16;34.33;100501.97;5013310;28;823;-57
2021/10/04 12:57:26;;;;;;;;;;;;;;;25.76;33.45;100496.28;5013235;28;806;-58
2021/10/04 12:59:57;;;;;;;;;;;;;;;25.76;33.45;100499.09;5013777;28;775;-58
2021/10/04 13:02:25;;;;;;;;;;;;;;;25.96;32.62;100499.16;4995563;28;1890;-58
2021/10/04 13:04:53;;;;;;;;;;;;;;;25.93;32.85;100488.06;5013052;28;903;-58
2021/10/04 13:07:21;;;;;;;;;;;;;;;25.97;32.91;100489.41;5012882;28;944;-58
2021/10/04 13:09:47;;;;;;;;;;;;;;;25.73;33.37;100483.84;4995447;28;918;-57
2021/10/04 13:12:15;;;;;;;;;;;;;;;25.50;34.04;100502.56;5012980;28;791;-58